Time;durP1;ratioP1;P1;durP2;ratioP2;P2;SDS_P1;SDS_P2;PMS_P1;PMS_P2;Temp;Humidity;BMP_temperature;BMP_pressure;BME280_temperature;BME280_humidity;BME280_pressure;Samples;Min_cycle;Max_cycle;Signal;HPM_P1;HPM_P2
2022/10/07 00:00:05;;;;;;;5.73;4.03;;;10.50;99.90;;;;;;5002971;28;20454;-81
2022/10/07 00:02:49;;;;;;;6.20;5.60;;;10.50;99.90;;;;;;5002577;28;20401;-80
2022/10/07 00:05:33;;;;;;;11.17;5.93;;;10.70;99.90;;;;;;5001994;28;20444;-79
2022/10/07 00:08:17;;;;;;;7.23;4.30;;;10.80;99.90;;;;;;5000612;28;20400;-81
2022/10/07 00:11:09;;;;;;;15.67;5.57;;;11.00;99.90;;;;;;5001858;28;20448;-81
2022/10/07 00:13:58;;;;;;;4.90;4.37;;;11.00;99.90;;;;;;5001879;28;20397;-80
2022/10/07 00:16:42;;;;;;;7.10;5.07;;;10.90;99.90;;;;;;5001289;28;20940;-81
2022/10/07 00:19:26;;;;;;;7.93;5.23;;;10.80;99.90;;;;;;5001229;28;20484;-81
2022/10/07 00:22:10;;;;;;;7.70;5.23;;;10.70;99.90;;;;;;5001574;28;20396;-81
2022/10/07 00:24:54;;;;;;;6.83;5.23;;;10.70;99.90;;;;;;5001730;28;20889;-81
2022/10/07 00:27:38;;;;;;;6.50;4.57;;;10.70;99.90;;;;;;5001414;28;20380;-81
2022/10/07 00:30:23;;;;;;;8.80;4.70;;;10.70;99.90;;;;;;5001538;28;20452;-81
2022/10/07 00:33:07;;;;;;;8.47;4.80;;;10.80;99.90;;;;;;5001469;28;20388;-81
2022/10/07 00:35:51;;;;;;;7.67;5.03;;;10.70;99.90;;;;;;5002210;28;20442;-80
2022/10/07 00:38:35;;;;;;;14.13;4.43;;;10.60;99.90;;;;;;4999811;28;20444;-81
2022/10/07 00:41:23;;;;;;;10.27;4.50;;;10.50;99.90;;;;;;5001641;28;20505;-81
2022/10/07 00:44:39;;;;;;;4.20;3.30;;;10.60;99.90;;;;;;5001195;28;20389;-81
2022/10/07 00:47:28;;;;;;;6.57;3.50;;;10.70;99.90;;;;;;5001260;28;20396;-80
2022/10/07 00:50:19;;;;;;;9.20;5.90;;;10.60;99.90;;;;;;5001556;28;20384;-80
2022/10/07 00:53:04;;;;;;;6.90;4.57;;;10.60;99.90;;;;;;5001237;28;20964;-81
2022/10/07 00:55:48;;;;;;;5.17;4.37;;;10.60;99.90;;;;;;5001522;28;20384;-80
2022/10/07 00:58:35;;;;;;;6.60;5.20;;;10.50;99.90;;;;;;5001829;28;20463;-80
2022/10/07 01:01:20;;;;;;;8.27;4.80;;;10.50;99.90;;;;;;5000967;28;20413;-81
2022/10/07 01:04:27;;;;;;;4.20;3.80;;;10.50;99.90;;;;;;5003777;28;20889;-80
2022/10/07 01:07:11;;;;;;;8.10;4.83;;;10.40;99.90;;;;;;4998999;28;20452;-81
2022/10/07 01:09:58;;;;;;;6.77;4.10;;;10.40;99.90;;;;;;4998321;28;20420;-81
2022/10/07 01:13:13;;;;;;;6.90;4.20;;;10.50;99.90;;;;;;4999067;28;20412;-80
2022/10/07 01:16:15;;;;;;;10.47;4.00;;;10.50;99.90;;;;;;4998109;28;20556;-81
2022/10/07 01:19:39;;;;;;;5.33;4.47;;;10.40;99.90;;;;;;4998574;28;20448;-82
2022/10/07 01:22:44;;;;;;;7.87;4.50;;;10.40;99.90;;;;;;5013970;28;20412;-81
2022/10/07 01:25:59;;;;;;;5.77;4.07;;;10.30;99.90;;;;;;4975119;28;20440;-81
2022/10/07 01:28:50;;;;;;;7.50;3.97;;;10.30;99.90;;;;;;4995559;28;20444;-82
2022/10/07 01:31:41;;;;;;;3.67;3.33;;;10.30;99.90;;;;;;4998036;28;20441;-80
2022/10/07 01:34:26;;;;;;;5.80;3.67;;;10.40;99.90;;;;;;4998699;28;20744;-81
2022/10/07 01:37:15;;;;;;;6.03;3.63;;;10.30;99.90;;;;;;5002466;28;20408;-79
2022/10/07 01:40:05;;;;;;;6.07;3.57;;;10.30;99.90;;;;;;5016810;28;20451;-81
2022/10/07 01:42:50;;;;;;;11.47;4.00;;;10.40;99.90;;;;;;5001809;28;20484;-81
2022/10/07 01:45:39;;;;;;;7.17;4.30;;;10.40;99.90;;;;;;4984802;28;20380;-81
2022/10/07 01:48:23;;;;;;;14.07;4.63;;;10.30;99.90;;;;;;4997708;28;20384;-81
2022/10/07 01:51:08;;;;;;;6.10;4.77;;;10.40;99.90;;;;;;4992317;28;21028;-82
2022/10/07 01:54:18;;;;;;;10.40;4.10;;;10.30;99.90;;;;;;5012766;28;20384;-82
2022/10/07 01:57:22;;;;;;;10.80;4.23;;;10.30;99.90;;;;;;4999959;28;20456;-79
2022/10/07 02:00:10;;;;;;;8.10;4.57;;;10.30;99.90;;;;;;4999934;28;20956;-80
2022/10/07 02:03:21;;;;;;;10.03;4.10;;;10.10;99.90;;;;;;4999914;28;20404;-82
2022/10/07 02:06:20;;;;;;;5.60;4.37;;;9.90;99.90;;;;;;5000109;28;20458;-81
2022/10/07 02:09:17;;;;;;;8.03;4.80;;;9.90;99.90;;;;;;5000062;28;20941;-82
2022/10/07 02:12:14;;;;;;;7.53;5.67;;;9.80;99.90;;;;;;5003114;28;20454;-81
2022/10/07 02:15:09;;;;;;;3.70;3.03;;;9.50;99.90;;;;;;5014590;28;20400;-79
2022/10/07 02:17:58;;;;;;;3.57;3.27;;;9.30;99.90;;;;;;4999598;28;20445;-80
2022/10/07 02:20:46;;;;;;;4.03;3.73;;;9.10;99.90;;;;;;4999549;28;20416;-82
2022/10/07 02:23:33;;;;;;;13.53;3.30;;;9.10;99.90;;;;;;4998559;28;20416;-80
2022/10/07 02:26:20;;;;;;;4.70;2.50;;;8.50;99.90;;;;;;5000163;28;20400;-80
2022/10/07 02:29:08;;;;;;;3.53;3.23;;;8.30;99.90;;;;;;4999274;28;20385;-81
2022/10/07 02:31:56;;;;;;;7.83;3.20;;;8.10;99.90;;;;;;5015731;28;20480;-80
2022/10/07 02:34:42;;;;;;;2.83;2.50;;;7.80;99.90;;;;;;5019129;28;20419;-80
2022/10/07 02:37:31;;;;;;;3.47;3.17;;;7.70;99.90;;;;;;5019906;28;20936;-80
2022/10/07 02:40:15;;;;;;;3.10;2.90;;;7.60;99.90;;;;;;5019489;28;20531;-81
2022/10/07 02:43:20;;;;;;;2.00;1.90;;;7.40;99.90;;;;;;5019133;28;20896;-81
2022/10/07 02:46:18;;;;;;;6.83;2.50;;;7.40;99.90;;;;;;5019485;28;20447;-81
2022/10/07 02:49:10;;;;;;;3.00;2.80;;;7.40;99.90;;;;;;5019118;28;20527;-81
2022/10/07 02:52:00;;;;;;;2.03;1.90;;;7.40;99.90;;;;;;5019083;28;20848;-81
2022/10/07 02:54:58;;;;;;;4.60;2.80;;;7.40;99.90;;;;;;5018726;28;20380;-81
2022/10/07 02:57:47;;;;;;;3.90;2.40;;;7.40;99.90;;;;;;5018748;28;20459;-81
2022/10/07 03:00:34;;;;;;;9.53;2.80;;;7.30;99.90;;;;;;5018956;28;20403;-81
2022/10/07 03:03:18;;;;;;;3.80;2.80;;;7.30;99.90;;;;;;5019839;28;20400;-81
2022/10/07 03:06:04;;;;;;;3.63;2.37;;;7.20;99.90;;;;;;5019258;28;20380;-81
2022/10/07 03:08:49;;;;;;;3.90;2.63;;;7.00;99.90;;;;;;5018977;28;20387;-81
2022/10/07 03:11:36;;;;;;;6.50;2.93;;;7.10;99.90;;;;;;5018564;28;20434;-81
2022/10/07 03:14:23;;;;;;;3.93;2.87;;;7.40;99.90;;;;;;5018168;28;20451;-81
2022/10/07 03:17:07;;;;;;;3.20;2.90;;;7.70;99.90;;;;;;5019355;28;20447;-82
2022/10/07 03:19:51;;;;;;;6.47;4.20;;;8.10;99.90;;;;;;5018139;28;20527;-81
2022/10/07 03:22:36;;;;;;;11.03;5.20;;;8.30;99.90;;;;;;5018550;28;20846;-81
2022/10/07 03:25:20;;;;;;;4.80;3.80;;;8.70;99.90;;;;;;5019004;28;20391;-81
2022/10/07 03:28:04;;;;;;;7.57;4.33;;;8.90;99.90;;;;;;5018323;28;20384;-81
2022/10/07 03:30:49;;;;;;;10.60;4.60;;;9.10;99.90;;;;;;5018112;28;20404;-81
2022/10/07 03:33:36;;;;;;;6.63;4.30;;;9.10;99.90;;;;;;5017375;28;20526;-81
2022/10/07 03:36:23;;;;;;;7.70;5.20;;;9.10;99.90;;;;;;5017759;28;20434;-81
2022/10/07 03:39:08;;;;;;;5.80;4.40;;;9.20;99.90;;;;;;5018307;28;21010;-81
2022/10/07 03:41:52;;;;;;;6.33;4.63;;;9.20;99.90;;;;;;5018261;28;20442;-81
2022/10/07 03:44:37;;;;;;;4.80;3.67;;;9.20;99.90;;;;;;5016586;28;20411;-81
2022/10/07 03:47:21;;;;;;;10.40;4.13;;;9.30;99.90;;;;;;5001409;28;20485;-81
2022/10/07 03:50:07;;;;;;;9.73;4.90;;;9.30;99.90;;;;;;5010252;28;20427;-81
2022/10/07 03:52:52;;;;;;;8.60;5.33;;;9.40;99.90;;;;;;5016409;28;20450;-81
2022/10/07 03:55:36;;;;;;;8.07;5.30;;;9.30;99.90;;;;;;5017808;28;20506;-81
2022/10/07 03:58:21;;;;;;;6.90;4.20;;;9.10;99.90;;;;;;5017927;28;20399;-81
2022/10/07 04:01:07;;;;;;;10.10;5.90;;;8.40;99.90;;;;;;5018377;28;20380;-81
2022/10/07 04:03:52;;;;;;;13.43;5.47;;;8.50;99.90;;;;;;5019452;28;20399;-81
2022/10/07 04:06:37;;;;;;;10.90;4.90;;;8.60;99.90;;;;;;5018670;28;20416;-81
2022/10/07 04:09:22;;;;;;;6.97;4.83;;;8.40;99.90;;;;;;5017998;28;20388;-82
2022/10/07 04:12:06;;;;;;;6.40;5.33;;;8.20;99.90;;;;;;5017922;28;20788;-82
2022/10/07 04:14:50;;;;;;;6.13;5.53;;;8.30;99.90;;;;;;5018182;28;20467;-82
2022/10/07 04:17:35;;;;;;;12.20;5.20;;;8.60;99.90;;;;;;5017937;28;20459;-80
2022/10/07 04:20:19;;;;;;;10.73;5.23;;;8.80;99.90;;;;;;5016591;28;20471;-81
2022/10/07 04:23:03;;;;;;;5.43;4.93;;;9.00;99.90;;;;;;5018098;28;20384;-81
2022/10/07 04:25:47;;;;;;;6.50;4.73;;;9.00;99.90;;;;;;5016337;28;20396;-81
2022/10/07 04:28:32;;;;;;;9.10;4.83;;;9.10;99.90;;;;;;5018209;28;20431;-81
2022/10/07 04:31:17;;;;;;;5.50;5.00;;;9.10;99.90;;;;;;4998977;28;20428;-82
2022/10/07 04:34:01;;;;;;;6.13;4.67;;;9.10;99.90;;;;;;5006912;28;20408;-81
2022/10/07 04:36:46;;;;;;;8.47;4.67;;;9.10;99.90;;;;;;5005976;28;20735;-81
2022/10/07 04:39:31;;;;;;;9.03;4.70;;;9.10;99.90;;;;;;4998333;28;20539;-81
2022/10/07 04:45:13;;;;;;;9.93;4.87;;;8.80;99.90;;;;;;5000053;28;20928;-81
2022/10/07 04:47:58;;;;;;;6.17;4.50;;;8.80;99.90;;;;;;5001211;28;20391;-81
2022/10/07 04:50:42;;;;;;;5.10;4.37;;;9.00;99.90;;;;;;5001585;28;20393;-81
2022/10/07 04:53:27;;;;;;;6.30;4.93;;;9.00;99.90;;;;;;5001521;28;20404;-80
2022/10/07 04:56:11;;;;;;;6.87;5.83;;;9.00;99.90;;;;;;5001136;28;20916;-80
2022/10/07 04:58:55;;;;;;;6.00;5.50;;;9.00;99.90;;;;;;5001388;28;20472;-80
2022/10/07 05:01:39;;;;;;;12.13;5.67;;;9.00;99.90;;;;;;5001305;28;20444;-81
2022/10/07 05:04:23;;;;;;;8.17;5.80;;;9.00;99.90;;;;;;5001599;28;20392;-80
2022/10/07 05:07:08;;;;;;;6.80;4.80;;;9.00;99.90;;;;;;5008913;28;20442;-79
2022/10/07 05:09:52;;;;;;;8.47;5.10;;;9.00;99.90;;;;;;5017692;28;20457;-80
2022/10/07 05:12:38;;;;;;;5.77;4.97;;;9.00;99.90;;;;;;5010504;28;20400;-78
2022/10/07 05:15:22;;;;;;;8.73;5.47;;;9.00;99.90;;;;;;5024873;28;20490;-79
2022/10/07 05:18:06;;;;;;;10.80;5.77;;;9.00;99.90;;;;;;5037398;28;20425;-78
2022/10/07 05:20:51;;;;;;;7.10;5.10;;;9.00;99.90;;;;;;5023433;28;20491;-79
2022/10/07 05:23:36;;;;;;;6.53;5.07;;;9.00;99.90;;;;;;5026099;28;20450;-82
2022/10/07 05:26:20;;;;;;;11.03;5.03;;;9.00;99.90;;;;;;5022647;28;20474;-82
2022/10/07 05:29:05;;;;;;;8.10;5.70;;;9.00;99.90;;;;;;5017950;28;20470;-82
2022/10/07 05:31:49;;;;;;;8.17;4.73;;;9.00;99.90;;;;;;5015300;28;20451;-80
2022/10/07 05:34:33;;;;;;;5.70;5.10;;;9.00;99.90;;;;;;5018820;28;20432;-81
2022/10/07 05:37:18;;;;;;;5.53;4.93;;;8.80;99.90;;;;;;4993657;28;20467;-82
2022/10/07 05:40:03;;;;;;;6.33;4.37;;;8.80;99.90;;;;;;5004474;28;20483;-82
2022/10/07 05:42:48;;;;;;;6.20;4.37;;;8.80;99.90;;;;;;5012511;28;20423;-82
2022/10/07 05:45:32;;;;;;;7.80;4.30;;;8.90;99.90;;;;;;5024593;28;20449;-80
2022/10/07 05:48:17;;;;;;;7.73;5.73;;;8.90;99.90;;;;;;5004178;28;20511;-80
2022/10/07 05:51:01;;;;;;;6.30;5.60;;;8.90;99.90;;;;;;5020634;28;20797;-81
2022/10/07 05:53:47;;;;;;;7.13;5.60;;;8.90;99.90;;;;;;5006327;28;20436;-81
2022/10/07 05:56:31;;;;;;;6.73;4.80;;;9.00;99.90;;;;;;5000943;28;20455;-80
2022/10/07 05:59:15;;;;;;;9.00;5.47;;;8.90;99.90;;;;;;5000078;28;20491;-81
2022/10/07 06:02:00;;;;;;;5.80;5.17;;;8.90;99.90;;;;;;5013116;28;21039;-81
2022/10/07 06:04:47;;;;;;;11.43;5.70;;;9.00;99.90;;;;;;5008289;28;20435;-81
2022/10/07 06:07:32;;;;;;;11.63;5.63;;;8.90;99.90;;;;;;5016286;28;20530;-81
2022/10/07 06:13:46;;;;;;;7.23;4.43;;;9.20;99.90;;;;;;5018678;28;20794;-79
2022/10/07 06:16:31;;;;;;;9.20;5.67;;;9.20;99.90;;;;;;4995531;28;20487;-81
2022/10/07 06:19:21;;;;;;;9.10;5.70;;;9.10;99.90;;;;;;4988312;28;20986;-80
2022/10/07 06:22:05;;;;;;;6.00;5.00;;;9.10;99.90;;;;;;4988230;28;20452;-81
2022/10/07 06:24:55;;;;;;;7.50;4.63;;;9.00;99.90;;;;;;4994370;28;20475;-81
2022/10/07 06:27:39;;;;;;;8.03;6.20;;;9.20;99.90;;;;;;4984150;28;20960;-81
2022/10/07 06:30:24;;;;;;;4.67;4.27;;;9.20;99.90;;;;;;4992244;28;20599;-78
2022/10/07 06:33:09;;;;;;;5.47;4.97;;;9.30;99.90;;;;;;4987177;28;20537;-80
2022/10/07 06:35:55;;;;;;;7.47;4.90;;;9.30;99.90;;;;;;4949306;28;20448;-82
2022/10/07 06:38:45;;;;;;;7.10;5.00;;;9.40;99.90;;;;;;4985345;28;20511;-81
2022/10/07 06:41:30;;;;;;;9.40;5.60;;;9.50;99.90;;;;;;4985202;28;20621;-80
2022/10/07 06:44:15;;;;;;;9.10;5.33;;;9.50;99.90;;;;;;4991087;28;20445;-80
2022/10/07 06:47:01;;;;;;;6.77;4.10;;;9.40;99.90;;;;;;4998515;28;20459;-80
2022/10/07 06:49:45;;;;;;;3.93;3.57;;;8.90;99.90;;;;;;5006953;28;20504;-80
2022/10/07 06:52:30;;;;;;;6.70;5.23;;;9.20;99.90;;;;;;5015323;28;20471;-81
2022/10/07 06:55:14;;;;;;;6.43;4.50;;;9.30;99.90;;;;;;5010813;28;20502;-80
2022/10/07 06:57:58;;;;;;;5.17;4.67;;;9.50;99.90;;;;;;5029088;28;20487;-78
2022/10/07 07:00:46;;;;;;;6.13;4.17;;;9.60;99.90;;;;;;5024284;28;20459;-79
2022/10/07 07:03:31;;;;;;;5.30;4.37;;;9.70;99.90;;;;;;5021590;28;20451;-78
2022/10/07 07:06:16;;;;;;;5.20;3.90;;;9.70;99.90;;;;;;5021285;28;20489;-79
2022/10/07 07:09:03;;;;;;;6.70;5.07;;;9.80;99.90;;;;;;5019687;28;20991;-77
2022/10/07 07:11:48;;;;;;;5.73;4.40;;;9.80;99.90;;;;;;5025751;28;20455;-78
2022/10/07 07:14:34;;;;;;;4.60;4.03;;;9.90;99.90;;;;;;5020413;28;20472;-77
2022/10/07 07:17:18;;;;;;;4.07;3.70;;;9.50;99.90;;;;;;5018948;28;20891;-78
2022/10/07 07:20:03;;;;;;;6.20;3.90;;;9.60;99.90;;;;;;5022748;28;20462;-80
2022/10/07 07:22:51;;;;;;;12.30;7.30;;;9.70;99.90;;;;;;5029805;28;20436;-80
2022/10/07 07:25:37;;;;;;;7.30;5.23;;;9.30;99.90;;;;;;5010647;28;20466;-81
2022/10/07 07:28:22;;;;;;;4.20;3.80;;;9.70;99.90;;;;;;5017292;28;20434;-82
2022/10/07 07:31:08;;;;;;;8.50;4.70;;;9.90;99.90;;;;;;5014489;28;20431;-81
2022/10/07 07:33:52;;;;;;;6.13;4.27;;;9.80;99.90;;;;;;5022756;28;20459;-79
2022/10/07 07:36:41;;;;;;;5.23;4.30;;;9.80;99.90;;;;;;5023563;28;20464;-80
2022/10/07 07:39:26;;;;;;;10.70;4.50;;;10.10;99.90;;;;;;5023257;28;20452;-78
2022/10/07 07:42:10;;;;;;;4.57;4.00;;;10.20;99.90;;;;;;5013602;28;20438;-81
2022/10/07 07:44:54;;;;;;;4.40;4.00;;;10.30;99.90;;;;;;5010006;28;20524;-81
2022/10/07 07:47:39;;;;;;;7.00;3.83;;;10.30;99.90;;;;;;5006081;28;20423;-81
2022/10/07 07:50:26;;;;;;;4.10;3.70;;;10.30;99.90;;;;;;5005970;28;20428;-81
2022/10/07 07:53:10;;;;;;;7.07;5.23;;;10.40;99.90;;;;;;5011721;28;20439;-81
2022/10/07 07:55:55;;;;;;;5.13;4.63;;;10.50;99.90;;;;;;5007318;28;20898;-80
2022/10/07 07:58:40;;;;;;;9.30;3.87;;;10.50;99.90;;;;;;4983303;28;21100;-82
2022/10/07 08:01:25;;;;;;;10.00;4.77;;;10.60;99.90;;;;;;4982378;28;20462;-82
2022/10/07 08:04:09;;;;;;;7.03;4.90;;;10.70;99.90;;;;;;4986384;28;20561;-82
2022/10/07 08:06:54;;;;;;;4.50;4.10;;;10.90;99.90;;;;;;4985649;28;20593;-82
2022/10/07 08:09:39;;;;;;;5.50;4.37;;;10.80;99.90;;;;;;4988787;28;20509;-82
2022/10/07 08:12:23;;;;;;;5.73;4.47;;;10.80;99.90;;;;;;4988198;28;20484;-82
2022/10/07 08:15:09;;;;;;;4.73;4.33;;;10.90;99.90;;;;;;4988440;28;20468;-81
2022/10/07 08:17:54;;;;;;;5.60;4.20;;;11.00;99.90;;;;;;4991217;28;20859;-80
2022/10/07 08:20:38;;;;;;;4.53;4.13;;;10.90;99.90;;;;;;4993729;28;21011;-81
2022/10/07 08:23:25;;;;;;;3.80;3.50;;;11.10;99.90;;;;;;4994167;28;21009;-81
2022/10/07 08:26:09;;;;;;;12.80;5.17;;;11.00;99.90;;;;;;4996585;28;21246;-82
2022/10/07 08:28:54;;;;;;;8.87;4.77;;;11.00;99.90;;;;;;5010159;28;20447;-81
2022/10/07 08:31:40;;;;;;;6.30;4.20;;;11.00;99.90;;;;;;5019272;28;20469;-80
2022/10/07 08:34:25;;;;;;;4.43;4.00;;;11.10;99.90;;;;;;5019979;28;20423;-79
2022/10/07 08:37:10;;;;;;;4.77;4.37;;;11.20;99.90;;;;;;4999501;28;20432;-81
2022/10/07 08:39:54;;;;;;;4.23;3.73;;;10.90;99.90;;;;;;5019866;28;20939;-81
2022/10/07 08:42:41;;;;;;;7.03;4.53;;;11.10;99.90;;;;;;5000753;28;20924;-81
2022/10/07 08:45:30;;;;;;;6.40;4.83;;;11.30;99.90;;;;;;5011699;28;20872;-81
2022/10/07 08:48:23;;;;;;;5.97;4.30;;;11.30;99.90;;;;;;5012337;28;20501;-81
2022/10/07 08:51:25;;;;;;;6.27;5.67;;;11.00;99.90;;;;;;5010851;28;20446;-82
2022/10/07 08:54:14;;;;;;;4.97;4.43;;;10.40;99.90;;;;;;5012405;28;20593;-82
2022/10/07 08:57:11;;;;;;;5.17;3.67;;;10.30;99.90;;;;;;5011862;28;20463;-80
2022/10/07 09:00:03;;;;;;;4.67;4.20;;;10.70;99.90;;;;;;4997084;28;20499;-81
2022/10/07 09:03:06;;;;;;;5.60;3.83;;;10.90;99.90;;;;;;5007917;28;20494;-81
2022/10/07 09:05:51;;;;;;;9.13;4.40;;;11.30;99.90;;;;;;5009571;28;20436;-81
2022/10/07 09:08:41;;;;;;;6.17;4.20;;;11.30;99.90;;;;;;5011585;28;20438;-81
2022/10/07 09:11:25;;;;;;;6.13;4.70;;;11.00;99.90;;;;;;5010089;28;20491;-81
2022/10/07 09:14:28;;;;;;;6.13;4.33;;;11.40;99.90;;;;;;5009639;28;20993;-81
2022/10/07 09:17:20;;;;;;;10.27;3.73;;;11.40;99.90;;;;;;5014140;28;20478;-82
2022/10/07 09:20:14;;;;;;;8.83;4.40;;;11.60;99.90;;;;;;5010429;28;20459;-82
2022/10/07 09:23:01;;;;;;;7.87;5.93;;;11.80;99.90;;;;;;5012466;28;20558;-82
2022/10/07 09:25:46;;;;;;;11.80;5.00;;;12.00;99.90;;;;;;5012851;28;20443;-82
2022/10/07 09:28:32;;;;;;;3.93;3.63;;;12.10;99.90;;;;;;5014304;28;20439;-80
2022/10/07 09:31:38;;;;;;;4.83;4.40;;;12.20;99.90;;;;;;5016736;28;20451;-79
2022/10/07 09:34:26;;;;;;;6.10;4.77;;;12.00;99.90;;;;;;5019854;28;20418;-80
2022/10/07 09:37:21;;;;;;;5.23;4.73;;;12.20;99.90;;;;;;5018683;28;20982;-80
2022/10/07 09:40:32;;;;;;;7.87;4.47;;;12.20;99.90;;;;;;5011966;28;20463;-83
2022/10/07 09:43:18;;;;;;;5.40;4.30;;;12.20;99.90;;;;;;5016646;28;20519;-80
2022/10/07 09:46:02;;;;;;;5.30;4.60;;;12.50;99.90;;;;;;5015704;28;20439;-81
2022/10/07 09:48:53;;;;;;;4.47;4.10;;;12.70;99.90;;;;;;5003956;28;20462;-81
2022/10/07 09:51:38;;;;;;;5.83;4.10;;;12.70;99.90;;;;;;4983894;28;20490;-81
2022/10/07 09:54:24;;;;;;;15.57;6.07;;;12.60;99.90;;;;;;4998506;28;20487;-81
2022/10/07 09:57:24;;;;;;;10.00;4.10;;;12.30;99.90;;;;;;5016620;28;20463;-82
2022/10/07 10:00:19;;;;;;;9.03;5.87;;;12.70;99.90;;;;;;5002568;28;20547;-81
2022/10/07 10:03:06;;;;;;;12.40;11.10;;;12.60;99.90;;;;;;5004207;28;20435;-82
2022/10/07 10:05:56;;;;;;;5.97;4.40;;;12.50;99.90;;;;;;5018536;28;20464;-82
2022/10/07 10:08:42;;;;;;;8.80;5.23;;;12.70;99.90;;;;;;5021164;28;20412;-81
2022/10/07 10:11:27;;;;;;;4.90;4.40;;;13.10;99.90;;;;;;5021933;28;20432;-81
2022/10/07 10:14:47;;;;;;;5.73;5.13;;;13.40;99.90;;;;;;5020715;28;20467;-80
2022/10/07 10:17:41;;;;;;;9.00;5.27;;;13.70;99.90;;;;;;5018552;28;20835;-81
2022/10/07 10:20:34;;;;;;;9.13;4.93;;;13.80;99.90;;;;;;5009801;28;20881;-81
2022/10/07 10:23:33;;;;;;;11.47;5.43;;;13.80;99.90;;;;;;5008555;28;20439;-82
2022/10/07 10:26:48;;;;;;;8.70;5.33;;;13.70;99.90;;;;;;5011337;28;20428;-82
2022/10/07 10:29:49;;;;;;;6.07;5.43;;;13.50;99.90;;;;;;5019052;28;20504;-81
2022/10/07 10:33:12;;;;;;;5.90;4.20;;;13.50;99.90;;;;;;5013315;28;20594;-81
2022/10/07 10:36:17;;;;;;;9.10;5.07;;;13.80;99.90;;;;;;5001151;28;20443;-82
2022/10/07 10:39:15;;;;;;;7.07;5.13;;;14.00;99.90;;;;;;5014221;28;20514;-82
2022/10/07 10:42:04;;;;;;;6.00;5.27;;;13.80;99.90;;;;;;5011292;28;20431;-83
2022/10/07 10:45:08;;;;;;;14.83;6.13;;;13.70;99.90;;;;;;5011216;28;20466;-81
2022/10/07 10:48:24;;;;;;;8.50;4.67;;;14.00;99.90;;;;;;5015121;28;20427;-82
2022/10/07 10:51:33;;;;;;;5.23;4.67;;;13.50;99.90;;;;;;5024778;28;20787;-81
2022/10/07 10:54:38;;;;;;;8.13;5.47;;;13.40;99.90;;;;;;5010440;28;20467;-81
2022/10/07 10:57:44;;;;;;;5.20;4.27;;;13.50;99.90;;;;;;5011206;28;20459;-82
2022/10/07 11:00:43;;;;;;;5.83;5.33;;;13.50;99.90;;;;;;5007726;28;20479;-82
2022/10/07 11:03:59;;;;;;;5.73;5.10;;;13.60;99.90;;;;;;4992992;28;20419;-81
2022/10/07 11:06:49;;;;;;;7.83;5.57;;;13.70;99.90;;;;;;5011804;28;20436;-82
2022/10/07 11:09:49;;;;;;;8.47;5.40;;;13.60;99.90;;;;;;5011064;28;20767;-82
2022/10/07 11:12:38;;;;;;;9.40;4.80;;;13.60;99.90;;;;;;5004584;28;20432;-82
2022/10/07 11:15:30;;;;;;;4.10;3.63;;;13.80;99.90;;;;;;4999931;28;20791;-82
2022/10/07 11:18:29;;;;;;;7.90;3.77;;;14.00;99.90;;;;;;5011906;28;20427;-83
2022/10/07 11:21:22;;;;;;;5.10;4.30;;;14.20;99.90;;;;;;5004773;28;20502;-81
2022/10/07 11:24:16;;;;;;;4.90;3.67;;;14.20;99.90;;;;;;5010535;28;21123;-81
2022/10/07 11:27:23;;;;;;;7.10;3.03;;;14.10;99.90;;;;;;5009030;28;20483;-81
2022/10/07 11:30:19;;;;;;;10.07;4.20;;;14.30;99.90;;;;;;5009556;28;20431;-82
2022/10/07 11:33:10;;;;;;;9.83;3.60;;;14.50;99.90;;;;;;5005423;28;20432;-82
2022/10/07 11:36:03;;;;;;;5.27;3.90;;;14.80;99.90;;;;;;5007128;28;20467;-81
2022/10/07 11:38:51;;;;;;;7.70;4.00;;;14.90;99.90;;;;;;5008112;28;20478;-82
2022/10/07 11:41:51;;;;;;;4.40;3.10;;;15.10;99.90;;;;;;5012494;28;20451;-82
2022/10/07 11:44:45;;;;;;;3.90;3.60;;;15.10;99.90;;;;;;5018740;28;20479;-83
2022/10/07 11:47:46;;;;;;;6.13;3.00;;;15.30;99.90;;;;;;5018435;28;20547;-82
2022/10/07 11:50:38;;;;;;;7.27;3.67;;;15.00;99.90;;;;;;5016614;28;20411;-80
2022/10/07 11:53:27;;;;;;;8.97;3.73;;;15.20;99.90;;;;;;5014121;28;20479;-82
2022/10/07 11:56:19;;;;;;;4.57;3.33;;;15.30;99.90;;;;;;5014266;28;20439;-82
2022/10/07 11:59:06;;;;;;;2.97;2.77;;;15.20;99.90;;;;;;5010638;28;20502;-81
2022/10/07 12:01:51;;;;;;;3.67;3.00;;;15.80;99.90;;;;;;5015583;28;20492;-81
2022/10/07 12:04:37;;;;;;;10.13;9.33;;;15.90;99.90;;;;;;5020195;28;20534;-80
2022/10/07 12:07:51;;;;;;;11.70;3.60;;;15.90;99.90;;;;;;5018649;28;20522;-81
2022/10/07 12:10:36;;;;;;;7.53;3.77;;;16.10;99.90;;;;;;5020928;28;20424;-80
2022/10/07 12:13:37;;;;;;;3.30;3.00;;;16.30;99.90;;;;;;5014271;28;20431;-79
2022/10/07 12:16:52;;;;;;;3.40;2.60;;;16.30;99.90;;;;;;5012362;28;20470;-81
2022/10/07 12:19:37;;;;;;;6.13;3.53;;;16.50;99.90;;;;;;5008540;28;20451;-80
2022/10/07 12:22:21;;;;;;;7.37;3.40;;;16.70;99.90;;;;;;5014019;28;20458;-82
2022/10/07 12:25:30;;;;;;;5.07;3.40;;;16.90;99.90;;;;;;5016112;28;20504;-79
2022/10/07 12:28:33;;;;;;;5.17;3.63;;;17.50;99.90;;;;;;5018621;28;20427;-82
2022/10/07 12:31:45;;;;;;;3.00;2.70;;;18.00;99.90;;;;;;5017183;28;20474;-82
2022/10/07 12:34:37;;;;;;;3.40;2.30;;;18.00;99.90;;;;;;5015293;28;20495;-80
2022/10/07 12:37:43;;;;;;;4.80;2.90;;;18.60;99.90;;;;;;5018154;28;20534;-80
2022/10/07 12:40:30;;;;;;;6.10;2.30;;;20.00;99.90;;;;;;5020482;28;20502;-80
2022/10/07 12:43:24;;;;;;;3.10;2.03;;;20.00;99.90;;;;;;5010225;28;20484;-80
2022/10/07 12:46:14;;;;;;;4.30;2.50;;;19.70;99.90;;;;;;5003508;28;20900;-82
2022/10/07 12:49:23;;;;;;;3.40;2.57;;;20.30;99.90;;;;;;5014781;28;20463;-81
2022/10/07 12:52:29;;;;;;;2.60;2.17;;;20.30;99.90;;;;;;5011641;28;20478;-81
2022/10/07 12:55:22;;;;;;;2.30;2.17;;;20.30;99.90;;;;;;5007246;28;20447;-81
2022/10/07 13:02:07;;;;;;;2.47;2.27;;;20.30;99.90;;;;;;4994421;28;20457;-82
2022/10/07 13:05:23;;;;;;;6.97;3.20;;;20.10;99.90;;;;;;4984528;28;20850;-81
2022/10/07 13:08:39;;;;;;;2.43;2.03;;;19.80;99.90;;;;;;4988042;28;20417;-81
2022/10/07 13:11:54;;;;;;;3.50;2.20;;;19.70;99.90;;;;;;4991113;28;20532;-82
2022/10/07 13:14:54;;;;;;;4.03;2.67;;;19.60;99.90;;;;;;5002746;28;20497;-82
2022/10/07 13:17:50;;;;;;;4.00;3.30;;;19.80;99.90;;;;;;4998213;28;20468;-81
2022/10/07 13:20:52;;;;;;;4.07;3.63;;;20.40;99.90;;;;;;4983767;28;20523;-81
2022/10/07 13:23:36;;;;;;;2.43;2.23;;;20.40;99.90;;;;;;4992913;28;20452;-81
2022/10/07 13:26:24;;;;;;;3.50;2.47;;;20.90;99.90;;;;;;4999946;28;20487;-81
2022/10/07 13:29:21;;;;;;;3.30;2.60;;;20.90;99.90;;;;;;4997766;28;20428;-82
2022/10/07 13:32:23;;;;;;;2.57;2.37;;;21.70;99.90;;;;;;4997603;28;20451;-79
2022/10/07 13:35:33;;;;;;;4.43;4.03;;;22.50;99.90;;;;;;4979283;28;20488;-81
2022/10/07 13:38:23;;;;;;;6.90;3.67;;;22.10;99.90;;;;;;4979610;28;20440;-81
2022/10/07 13:41:28;;;;;;;3.27;2.80;;;22.10;99.90;;;;;;4967744;28;20529;-81
2022/10/07 13:44:17;;;;;;;5.00;4.17;;;21.10;99.90;;;;;;4983259;28;20481;-79
2022/10/07 13:47:05;;;;;;;5.50;3.03;;;21.60;99.90;;;;;;4976288;28;20457;-81
2022/10/07 13:49:52;;;;;;;3.60;3.13;;;21.70;99.90;;;;;;4971344;28;20528;-81
2022/10/07 13:52:41;;;;;;;2.93;2.73;;;21.80;99.90;;;;;;4966396;28;20464;-81
2022/10/07 13:55:29;;;;;;;12.03;2.53;;;21.40;99.90;;;;;;4981061;28;20449;-79
2022/10/07 13:58:15;;;;;;;3.03;2.73;;;21.50;99.90;;;;;;4980228;28;20501;-81
2022/10/07 14:01:03;;;;;;;3.30;2.67;;;21.80;99.90;;;;;;4953369;28;20516;-82
2022/10/07 14:04:24;;;;;;;3.57;2.87;;;22.00;99.90;;;;;;4977983;28;20437;-82
2022/10/07 14:07:19;;;;;;;2.77;2.53;;;21.60;99.90;;;;;;5016496;28;20526;-82
2022/10/07 14:10:08;;;;;;;5.87;2.63;;;21.50;99.90;;;;;;5019605;28;20427;-81
2022/10/07 14:12:58;;;;;;;4.30;2.80;;;21.60;99.90;;;;;;5020635;28;20438;-82
2022/10/07 14:15:47;;;;;;;3.63;2.50;;;22.40;99.90;;;;;;5013922;28;20431;-80
2022/10/07 14:18:32;;;;;;;3.53;2.60;;;22.60;99.90;;;;;;5004333;28;20840;-81
2022/10/07 14:21:17;;;;;;;3.67;3.23;;;22.50;99.90;;;;;;5016263;28;20422;-82
2022/10/07 14:24:08;;;;;;;6.07;3.30;;;22.60;99.90;;;;;;5010054;28;20416;-82
2022/10/07 14:26:53;;;;;;;3.97;2.60;;;23.00;99.90;;;;;;5016571;28;20443;-82
2022/10/07 14:29:37;;;;;;;2.30;2.10;;;22.80;99.90;;;;;;5013344;28;20989;-81
2022/10/07 14:35:25;;;;;;;3.37;2.73;;;22.60;99.90;;;;;;5007429;28;20429;-79
2022/10/07 14:38:24;;;;;;;3.20;2.33;;;22.60;99.90;;;;;;5007099;28;20430;-82
2022/10/07 14:41:09;;;;;;;4.60;2.80;;;22.50;99.90;;;;;;5004189;28;20505;-81
2022/10/07 14:43:58;;;;;;;4.10;2.80;;;22.30;99.90;;;;;;5010159;28;20430;-81
2022/10/07 14:46:43;;;;;;;2.43;2.10;;;22.00;99.90;;;;;;5010523;28;20456;-81
2022/10/07 14:49:27;;;;;;;3.47;2.80;;;22.20;99.90;;;;;;5014749;28;20427;-81
2022/10/07 14:52:27;;;;;;;4.50;3.40;;;22.40;99.90;;;;;;5007293;28;20849;-80
2022/10/07 14:55:17;;;;;;;3.40;2.77;;;22.40;99.90;;;;;;5006467;28;20423;-80
2022/10/07 14:58:04;;;;;;;4.03;2.77;;;22.50;99.90;;;;;;4985449;28;20466;-82
2022/10/07 15:00:50;;;;;;;3.47;3.17;;;22.60;99.90;;;;;;5012983;28;20466;-81
2022/10/07 15:03:35;;;;;;;3.40;3.10;;;22.80;99.90;;;;;;5009722;28;20434;-82